Ashton, Arkansas
Current Conditions -  °F | °C
As of 8:53 AM on Wednesday 22 Oct 2014 (Local Time) from KGLH Reporting Station
Clear Clear  
Wind Chill: 58°   Ceiling: Unl
Heat Index: 58°   Visibility: 10mi
Dew Point: 50°   Wind: 13mph
Humidity: 75%   Direction: 60°ENE
Pressure: 30.18"   Gusts: NA
Location:  33.3324°N, 91.3183°W
Report Text: KGLH 221353Z AUTO 06011KT 10SM CLR 14/10 A3018 RMK AO2 SLP228 T01440100
Loading
Personal Weather Stations






























Interactive Weather Map
Tropical Storm Tracking
New forecast layout! Learn more

10-Day Weather Forecast

Advertisements
Track Severe Weather on mobile